Deer Lake, Canada
Current Conditions -  °F | °C
As of 4:51 PM on Thursday 27 Nov 2014 (Local Time) from CYDF Reporting Station
Light Snow Light Snow  
Wind Chill: 18°   Ceiling: 1400
Heat Index: 30°   Visibility: 1.2mi
Dew Point: 30°   Wind: 17mph
Humidity: 100%   Direction: 40°NE
Pressure: 29.36"   Gusts: 23mph
Location:  49.21°N, 57.4°W
Report Text: CYDF 271951Z 04015G20KT 1 1/4SM -FZDZ -SN BR SCT006 OVC014 M01/M01 A2936 RMK SF4SC4 SLP942
Loading
Personal Weather Stations






























Interactive Weather Map New forecast layout! Learn more

10-Day Weather Forecast

Advertisements
Track Severe Weather on mobile